sensor_id;sensor_type;location;lat;lon;timestamp;P1;durP1;ratioP1;P2;durP2;ratioP2
19675;SDS011;39539;52.202;9.876;2024-03-02T00:01:39;21.20;;;19.60;;
19675;SDS011;39539;52.202;9.876;2024-03-02T00:04:07;20.13;;;18.60;;
19675;SDS011;39539;52.202;9.876;2024-03-02T00:06:33;21.33;;;19.80;;
19675;SDS011;39539;52.202;9.876;2024-03-02T00:09:13;21.67;;;20.00;;
19675;SDS011;39539;52.202;9.876;2024-03-02T00:11:40;21.60;;;20.05;;
19675;SDS011;39539;52.202;9.876;2024-03-02T00:14:11;22.20;;;20.52;;
19675;SDS011;39539;52.202;9.876;2024-03-02T00:16:39;22.70;;;20.77;;
19675;SDS011;39539;52.202;9.876;2024-03-02T00:19:16;22.45;;;20.75;;
19675;SDS011;39539;52.202;9.876;2024-03-02T00:21:54;22.85;;;21.00;;
19675;SDS011;39539;52.202;9.876;2024-03-02T00:24:34;22.50;;;20.42;;
19675;SDS011;39539;52.202;9.876;2024-03-02T00:27:01;22.73;;;20.88;;
19675;SDS011;39539;52.202;9.876;2024-03-02T00:29:29;22.98;;;21.13;;
19675;SDS011;39539;52.202;9.876;2024-03-02T00:31:59;24.58;;;22.52;;
19675;SDS011;39539;52.202;9.876;2024-03-02T00:34:27;24.05;;;21.98;;
19675;SDS011;39539;52.202;9.876;2024-03-02T00:36:52;24.08;;;22.17;;
19675;SDS011;39539;52.202;9.876;2024-03-02T00:39:18;24.58;;;22.67;;
19675;SDS011;39539;52.202;9.876;2024-03-02T00:41:46;25.02;;;22.83;;
19675;SDS011;39539;52.202;9.876;2024-03-02T00:44:12;25.17;;;23.15;;
19675;SDS011;39539;52.202;9.876;2024-03-02T00:46:40;26.02;;;23.80;;
19675;SDS011;39539;52.202;9.876;2024-03-02T00:49:21;26.13;;;23.73;;
19675;SDS011;39539;52.202;9.876;2024-03-02T00:51:48;24.83;;;22.73;;
19675;SDS011;39539;52.202;9.876;2024-03-02T00:54:21;24.70;;;22.67;;
19675;SDS011;39539;52.202;9.876;2024-03-02T00:56:55;24.85;;;22.65;;
19675;SDS011;39539;52.202;9.876;2024-03-02T00:59:24;24.95;;;22.83;;
19675;SDS011;39539;52.202;9.876;2024-03-02T01:01:53;24.88;;;22.88;;
19675;SDS011;39539;52.202;9.876;2024-03-02T01:04:19;25.38;;;23.25;;
19675;SDS011;39539;52.202;9.876;2024-03-02T01:06:45;24.23;;;22.23;;
19675;SDS011;39539;52.202;9.876;2024-03-02T01:09:26;25.55;;;23.38;;
19675;SDS011;39539;52.202;9.876;2024-03-02T01:11:53;24.17;;;22.27;;
19675;SDS011;39539;52.202;9.876;2024-03-02T01:14:20;25.15;;;22.95;;
19675;SDS011;39539;52.202;9.876;2024-03-02T01:16:54;25.30;;;23.20;;
19675;SDS011;39539;52.202;9.876;2024-03-02T01:19:19;25.00;;;22.88;;
19675;SDS011;39539;52.202;9.876;2024-03-02T01:21:50;25.63;;;23.25;;
19675;SDS011;39539;52.202;9.876;2024-03-02T01:24:16;26.50;;;24.10;;
19675;SDS011;39539;52.202;9.876;2024-03-02T01:26:57;25.95;;;23.77;;
19675;SDS011;39539;52.202;9.876;2024-03-02T01:29:22;26.48;;;24.02;;
19675;SDS011;39539;52.202;9.876;2024-03-02T01:31:48;25.90;;;23.65;;
19675;SDS011;39539;52.202;9.876;2024-03-02T01:34:14;25.73;;;23.65;;
19675;SDS011;39539;52.202;9.876;2024-03-02T01:36:40;25.52;;;23.17;;
19675;SDS011;39539;52.202;9.876;2024-03-02T01:39:15;25.25;;;22.92;;
19675;SDS011;39539;52.202;9.876;2024-03-02T01:41:43;25.50;;;23.50;;
19675;SDS011;39539;52.202;9.876;2024-03-02T01:44:08;23.52;;;21.52;;
19675;SDS011;39539;52.202;9.876;2024-03-02T01:46:33;24.20;;;22.15;;
19675;SDS011;39539;52.202;9.876;2024-03-02T01:49:01;25.42;;;23.15;;
19675;SDS011;39539;52.202;9.876;2024-03-02T01:54:23;23.98;;;22.08;;
19675;SDS011;39539;52.202;9.876;2024-03-02T01:56:55;24.25;;;22.20;;
19675;SDS011;39539;52.202;9.876;2024-03-02T01:59:20;24.23;;;22.33;;
19675;SDS011;39539;52.202;9.876;2024-03-02T02:01:46;24.42;;;22.45;;
19675;SDS011;39539;52.202;9.876;2024-03-02T02:04:13;25.17;;;23.15;;
19675;SDS011;39539;52.202;9.876;2024-03-02T02:06:44;24.35;;;22.17;;
19675;SDS011;39539;52.202;9.876;2024-03-02T02:09:10;24.10;;;22.20;;
19675;SDS011;39539;52.202;9.876;2024-03-02T02:11:35;23.42;;;21.42;;
19675;SDS011;39539;52.202;9.876;2024-03-02T02:14:01;22.90;;;21.10;;
19675;SDS011;39539;52.202;9.876;2024-03-02T02:16:26;23.58;;;21.50;;
19675;SDS011;39539;52.202;9.876;2024-03-02T02:18:51;22.33;;;20.40;;
19675;SDS011;39539;52.202;9.876;2024-03-02T02:21:17;23.10;;;21.13;;
19675;SDS011;39539;52.202;9.876;2024-03-02T02:23:45;22.10;;;20.40;;
19675;SDS011;39539;52.202;9.876;2024-03-02T02:26:14;20.88;;;19.35;;
19675;SDS011;39539;52.202;9.876;2024-03-02T02:28:42;21.42;;;19.80;;
19675;SDS011;39539;52.202;9.876;2024-03-02T02:31:12;22.52;;;20.60;;
19675;SDS011;39539;52.202;9.876;2024-03-02T02:33:40;20.40;;;18.77;;
19675;SDS011;39539;52.202;9.876;2024-03-02T02:36:06;20.42;;;18.70;;
19675;SDS011;39539;52.202;9.876;2024-03-02T02:38:49;20.92;;;19.20;;
19675;SDS011;39539;52.202;9.876;2024-03-02T02:41:15;20.02;;;18.40;;
19675;SDS011;39539;52.202;9.876;2024-03-02T02:43:40;19.77;;;18.27;;
19675;SDS011;39539;52.202;9.876;2024-03-02T02:46:08;19.85;;;18.35;;
19675;SDS011;39539;52.202;9.876;2024-03-02T02:48:34;20.83;;;19.23;;
19675;SDS011;39539;52.202;9.876;2024-03-02T02:51:00;20.40;;;18.73;;
19675;SDS011;39539;52.202;9.876;2024-03-02T02:53:26;20.42;;;18.80;;
19675;SDS011;39539;52.202;9.876;2024-03-02T02:55:52;21.60;;;19.80;;
19675;SDS011;39539;52.202;9.876;2024-03-02T02:58:17;19.27;;;17.77;;
19675;SDS011;39539;52.202;9.876;2024-03-02T03:00:42;21.40;;;19.60;;
19675;SDS011;39539;52.202;9.876;2024-03-02T03:03:08;20.98;;;19.30;;
19675;SDS011;39539;52.202;9.876;2024-03-02T03:05:36;21.60;;;19.80;;
19675;SDS011;39539;52.202;9.876;2024-03-02T03:08:01;20.80;;;19.20;;
19675;SDS011;39539;52.202;9.876;2024-03-02T03:10:27;20.08;;;18.48;;
19675;SDS011;39539;52.202;9.876;2024-03-02T03:12:53;19.95;;;18.40;;
19675;SDS011;39539;52.202;9.876;2024-03-02T03:15:18;21.13;;;19.33;;
19675;SDS011;39539;52.202;9.876;2024-03-02T03:17:45;19.88;;;18.33;;
19675;SDS011;39539;52.202;9.876;2024-03-02T03:20:11;19.35;;;17.88;;
19675;SDS011;39539;52.202;9.876;2024-03-02T03:22:40;19.95;;;18.20;;
19675;SDS011;39539;52.202;9.876;2024-03-02T03:25:05;19.80;;;18.17;;
19675;SDS011;39539;52.202;9.876;2024-03-02T03:27:48;19.85;;;18.25;;
19675;SDS011;39539;52.202;9.876;2024-03-02T03:30:14;19.13;;;17.63;;
19675;SDS011;39539;52.202;9.876;2024-03-02T03:32:41;18.67;;;17.08;;
19675;SDS011;39539;52.202;9.876;2024-03-02T03:35:09;18.60;;;17.10;;
19675;SDS011;39539;52.202;9.876;2024-03-02T03:37:35;18.80;;;17.40;;
19675;SDS011;39539;52.202;9.876;2024-03-02T03:40:02;18.42;;;16.88;;
19675;SDS011;39539;52.202;9.876;2024-03-02T03:42:34;18.15;;;16.75;;
19675;SDS011;39539;52.202;9.876;2024-03-02T03:45:01;18.70;;;17.27;;
19675;SDS011;39539;52.202;9.876;2024-03-02T03:47:39;19.75;;;18.15;;
19675;SDS011;39539;52.202;9.876;2024-03-02T03:50:10;19.48;;;17.98;;
19675;SDS011;39539;52.202;9.876;2024-03-02T03:52:35;19.05;;;17.60;;
19675;SDS011;39539;52.202;9.876;2024-03-02T03:55:19;18.40;;;17.00;;
19675;SDS011;39539;52.202;9.876;2024-03-02T03:57:47;19.30;;;17.80;;
19675;SDS011;39539;52.202;9.876;2024-03-02T04:00:12;20.25;;;18.75;;
19675;SDS011;39539;52.202;9.876;2024-03-02T04:02:38;19.65;;;18.25;;
19675;SDS011;39539;52.202;9.876;2024-03-02T04:05:04;19.83;;;18.13;;
19675;SDS011;39539;52.202;9.876;2024-03-02T04:07:33;20.38;;;18.77;;
19675;SDS011;39539;52.202;9.876;2024-03-02T04:10:11;20.15;;;18.55;;
19675;SDS011;39539;52.202;9.876;2024-03-02T04:12:52;17.80;;;14.40;;
19675;SDS011;39539;52.202;9.876;2024-03-02T04:15:17;17.63;;;13.80;;
19675;SDS011;39539;52.202;9.876;2024-03-02T04:17:56;17.00;;;14.40;;
19675;SDS011;39539;52.202;9.876;2024-03-02T04:20:24;17.95;;;13.57;;
19675;SDS011;39539;52.202;9.876;2024-03-02T04:22:50;18.48;;;14.95;;
19675;SDS011;39539;52.202;9.876;2024-03-02T04:25:18;24.02;;;16.00;;
19675;SDS011;39539;52.202;9.876;2024-03-02T04:27:44;17.70;;;15.82;;
19675;SDS011;39539;52.202;9.876;2024-03-02T04:30:13;18.33;;;16.45;;
19675;SDS011;39539;52.202;9.876;2024-03-02T04:32:41;19.52;;;17.38;;
19675;SDS011;39539;52.202;9.876;2024-03-02T04:35:14;24.60;;;22.67;;
19675;SDS011;39539;52.202;9.876;2024-03-02T04:37:39;20.48;;;17.50;;
19675;SDS011;39539;52.202;9.876;2024-03-02T04:40:05;18.75;;;16.20;;
19675;SDS011;39539;52.202;9.876;2024-03-02T04:42:34;22.55;;;16.75;;
19675;SDS011;39539;52.202;9.876;2024-03-02T04:45:00;24.40;;;17.48;;
19675;SDS011;39539;52.202;9.876;2024-03-02T04:47:41;22.75;;;17.25;;
19675;SDS011;39539;52.202;9.876;2024-03-02T04:50:25;20.52;;;16.65;;
19675;SDS011;39539;52.202;9.876;2024-03-02T04:52:51;22.27;;;18.60;;
19675;SDS011;39539;52.202;9.876;2024-03-02T04:55:19;19.67;;;15.80;;
19675;SDS011;39539;52.202;9.876;2024-03-02T04:57:45;21.27;;;17.02;;
19675;SDS011;39539;52.202;9.876;2024-03-02T05:00:21;21.67;;;19.38;;
19675;SDS011;39539;52.202;9.876;2024-03-02T05:02:48;22.48;;;18.65;;
19675;SDS011;39539;52.202;9.876;2024-03-02T05:05:16;22.15;;;18.60;;
19675;SDS011;39539;52.202;9.876;2024-03-02T05:07:43;23.15;;;17.95;;
19675;SDS011;39539;52.202;9.876;2024-03-02T05:10:12;21.60;;;18.67;;
19675;SDS011;39539;52.202;9.876;2024-03-02T05:12:37;23.83;;;18.40;;
19675;SDS011;39539;52.202;9.876;2024-03-02T05:15:06;21.90;;;17.23;;
19675;SDS011;39539;52.202;9.876;2024-03-02T05:17:39;21.95;;;18.42;;
19675;SDS011;39539;52.202;9.876;2024-03-02T05:20:08;22.38;;;19.20;;
19675;SDS011;39539;52.202;9.876;2024-03-02T05:22:43;25.13;;;18.10;;
19675;SDS011;39539;52.202;9.876;2024-03-02T05:25:10;21.85;;;17.10;;
19675;SDS011;39539;52.202;9.876;2024-03-02T05:27:36;22.58;;;17.80;;
19675;SDS011;39539;52.202;9.876;2024-03-02T05:30:14;25.88;;;18.65;;
19675;SDS011;39539;52.202;9.876;2024-03-02T05:32:43;22.67;;;17.63;;
19675;SDS011;39539;52.202;9.876;2024-03-02T05:35:08;22.27;;;17.58;;
19675;SDS011;39539;52.202;9.876;2024-03-02T05:37:33;21.45;;;17.75;;
19675;SDS011;39539;52.202;9.876;2024-03-02T05:39:59;27.65;;;18.95;;
19675;SDS011;39539;52.202;9.876;2024-03-02T05:42:24;25.45;;;18.40;;
19675;SDS011;39539;52.202;9.876;2024-03-02T05:44:51;23.63;;;18.15;;
19675;SDS011;39539;52.202;9.876;2024-03-02T05:47:22;23.67;;;18.73;;
19675;SDS011;39539;52.202;9.876;2024-03-02T05:49:50;25.05;;;17.35;;
19675;SDS011;39539;52.202;9.876;2024-03-02T05:52:17;25.85;;;17.45;;
19675;SDS011;39539;52.202;9.876;2024-03-02T05:54:43;21.33;;;18.30;;
19675;SDS011;39539;52.202;9.876;2024-03-02T05:57:09;27.73;;;18.95;;
19675;SDS011;39539;52.202;9.876;2024-03-02T06:00:01;24.80;;;18.58;;
19675;SDS011;39539;52.202;9.876;2024-03-02T06:02:33;23.23;;;16.70;;
19675;SDS011;39539;52.202;9.876;2024-03-02T06:05:00;27.52;;;18.52;;
19675;SDS011;39539;52.202;9.876;2024-03-02T06:07:25;21.75;;;18.20;;
19675;SDS011;39539;52.202;9.876;2024-03-02T06:09:51;22.25;;;17.02;;
19675;SDS011;39539;52.202;9.876;2024-03-02T06:12:17;21.83;;;17.52;;
19675;SDS011;39539;52.202;9.876;2024-03-02T06:14:43;20.70;;;18.50;;
19675;SDS011;39539;52.202;9.876;2024-03-02T06:17:08;25.17;;;18.58;;
19675;SDS011;39539;52.202;9.876;2024-03-02T06:19:35;20.85;;;16.95;;
19675;SDS011;39539;52.202;9.876;2024-03-02T06:22:01;19.75;;;16.77;;
19675;SDS011;39539;52.202;9.876;2024-03-02T06:24:28;20.65;;;17.67;;
19675;SDS011;39539;52.202;9.876;2024-03-02T06:26:53;23.33;;;16.95;;
19675;SDS011;39539;52.202;9.876;2024-03-02T06:29:22;20.23;;;16.58;;
19675;SDS011;39539;52.202;9.876;2024-03-02T06:31:48;22.33;;;17.40;;
19675;SDS011;39539;52.202;9.876;2024-03-02T06:34:13;22.13;;;17.63;;
19675;SDS011;39539;52.202;9.876;2024-03-02T06:36:39;18.33;;;15.57;;
19675;SDS011;39539;52.202;9.876;2024-03-02T06:39:05;20.48;;;17.38;;
19675;SDS011;39539;52.202;9.876;2024-03-02T06:41:30;18.73;;;16.75;;
19675;SDS011;39539;52.202;9.876;2024-03-02T06:43:56;21.70;;;17.00;;
19675;SDS011;39539;52.202;9.876;2024-03-02T06:46:25;20.30;;;17.13;;
19675;SDS011;39539;52.202;9.876;2024-03-02T06:49:03;24.50;;;22.50;;
19675;SDS011;39539;52.202;9.876;2024-03-02T06:51:29;24.67;;;22.65;;
19675;SDS011;39539;52.202;9.876;2024-03-02T06:53:55;23.92;;;22.00;;
19675;SDS011;39539;52.202;9.876;2024-03-02T06:56:39;23.38;;;21.58;;
19675;SDS011;39539;52.202;9.876;2024-03-02T06:59:06;24.67;;;22.67;;
19675;SDS011;39539;52.202;9.876;2024-03-02T07:01:32;23.50;;;21.65;;
19675;SDS011;39539;52.202;9.876;2024-03-02T07:04:13;23.15;;;21.25;;
19675;SDS011;39539;52.202;9.876;2024-03-02T07:06:50;24.48;;;22.48;;
19675;SDS011;39539;52.202;9.876;2024-03-02T07:09:16;24.10;;;22.25;;
19675;SDS011;39539;52.202;9.876;2024-03-02T07:11:57;21.90;;;20.20;;
19675;SDS011;39539;52.202;9.876;2024-03-02T07:14:23;22.27;;;20.67;;
19675;SDS011;39539;52.202;9.876;2024-03-02T07:17:08;21.48;;;19.73;;
19675;SDS011;39539;52.202;9.876;2024-03-02T07:19:37;21.42;;;19.80;;
19675;SDS011;39539;52.202;9.876;2024-03-02T07:22:05;20.60;;;18.88;;
19675;SDS011;39539;52.202;9.876;2024-03-02T07:24:40;20.80;;;19.08;;
19675;SDS011;39539;52.202;9.876;2024-03-02T07:27:09;21.73;;;19.92;;
19675;SDS011;39539;52.202;9.876;2024-03-02T07:29:35;20.80;;;19.20;;
19675;SDS011;39539;52.202;9.876;2024-03-02T07:32:02;20.40;;;18.73;;
19675;SDS011;39539;52.202;9.876;2024-03-02T07:34:27;20.08;;;18.48;;
19675;SDS011;39539;52.202;9.876;2024-03-02T07:36:56;19.55;;;17.85;;
19675;SDS011;39539;52.202;9.876;2024-03-02T07:39:21;19.02;;;17.52;;
19675;SDS011;39539;52.202;9.876;2024-03-02T07:41:56;19.55;;;17.63;;
19675;SDS011;39539;52.202;9.876;2024-03-02T07:44:22;18.27;;;16.88;;
19675;SDS011;39539;52.202;9.876;2024-03-02T07:46:50;18.23;;;16.73;;
19675;SDS011;39539;52.202;9.876;2024-03-02T07:49:16;17.55;;;16.15;;
19675;SDS011;39539;52.202;9.876;2024-03-02T07:51:44;18.42;;;16.73;;
19675;SDS011;39539;52.202;9.876;2024-03-02T07:54:10;17.38;;;16.08;;
19675;SDS011;39539;52.202;9.876;2024-03-02T07:56:35;17.65;;;16.17;;
19675;SDS011;39539;52.202;9.876;2024-03-02T07:59:02;16.90;;;15.57;;
19675;SDS011;39539;52.202;9.876;2024-03-02T08:01:28;17.30;;;16.00;;
19675;SDS011;39539;52.202;9.876;2024-03-02T08:03:57;17.38;;;15.77;;
19675;SDS011;39539;52.202;9.876;2024-03-02T08:06:24;17.02;;;15.63;;
19675;SDS011;39539;52.202;9.876;2024-03-02T08:08:52;17.13;;;15.82;;
19675;SDS011;39539;52.202;9.876;2024-03-02T08:11:18;16.80;;;15.40;;
19675;SDS011;39539;52.202;9.876;2024-03-02T08:13:43;17.10;;;15.73;;
19675;SDS011;39539;52.202;9.876;2024-03-02T08:16:08;16.63;;;15.32;;
19675;SDS011;39539;52.202;9.876;2024-03-02T08:18:34;16.83;;;15.07;;
19675;SDS011;39539;52.202;9.876;2024-03-02T08:21:01;16.00;;;14.80;;
19675;SDS011;39539;52.202;9.876;2024-03-02T08:23:27;15.93;;;14.52;;
19675;SDS011;39539;52.202;9.876;2024-03-02T08:25:52;16.00;;;14.80;;
19675;SDS011;39539;52.202;9.876;2024-03-02T08:28:18;15.93;;;14.73;;
19675;SDS011;39539;52.202;9.876;2024-03-02T08:30:45;16.48;;;15.18;;
19675;SDS011;39539;52.202;9.876;2024-03-02T08:33:11;17.23;;;15.55;;
19675;SDS011;39539;52.202;9.876;2024-03-02T08:35:36;16.88;;;15.57;;
19675;SDS011;39539;52.202;9.876;2024-03-02T08:38:02;15.98;;;14.73;;
19675;SDS011;39539;52.202;9.876;2024-03-02T08:40:29;15.65;;;14.45;;
19675;SDS011;39539;52.202;9.876;2024-03-02T08:42:54;15.88;;;14.63;;
19675;SDS011;39539;52.202;9.876;2024-03-02T08:45:21;16.10;;;14.80;;
19675;SDS011;39539;52.202;9.876;2024-03-02T08:47:48;16.65;;;15.27;;
19675;SDS011;39539;52.202;9.876;2024-03-02T08:50:20;15.52;;;14.32;;
19675;SDS011;39539;52.202;9.876;2024-03-02T08:52:47;15.68;;;14.18;;
19675;SDS011;39539;52.202;9.876;2024-03-02T08:55:12;15.27;;;14.07;;
19675;SDS011;39539;52.202;9.876;2024-03-02T08:57:39;16.52;;;14.95;;
19675;SDS011;39539;52.202;9.876;2024-03-02T09:00:05;15.18;;;14.02;;
19675;SDS011;39539;52.202;9.876;2024-03-02T09:02:32;15.98;;;14.57;;
19675;SDS011;39539;52.202;9.876;2024-03-02T09:04:58;15.80;;;14.60;;
19675;SDS011;39539;52.202;9.876;2024-03-02T09:07:23;15.60;;;14.25;;
19675;SDS011;39539;52.202;9.876;2024-03-02T09:09:48;16.05;;;14.75;;
19675;SDS011;39539;52.202;9.876;2024-03-02T09:12:14;15.52;;;14.32;;
19675;SDS011;39539;52.202;9.876;2024-03-02T09:14:40;14.90;;;13.70;;
19675;SDS011;39539;52.202;9.876;2024-03-02T09:17:05;14.82;;;13.63;;
19675;SDS011;39539;52.202;9.876;2024-03-02T09:19:31;15.35;;;14.15;;
19675;SDS011;39539;52.202;9.876;2024-03-02T09:22:01;15.45;;;14.15;;
19675;SDS011;39539;52.202;9.876;2024-03-02T09:24:28;14.77;;;13.50;;
19675;SDS011;39539;52.202;9.876;2024-03-02T09:26:53;14.40;;;13.15;;
19675;SDS011;39539;52.202;9.876;2024-03-02T09:29:20;14.60;;;13.43;;
19675;SDS011;39539;52.202;9.876;2024-03-02T09:31:46;13.98;;;12.88;;
19675;SDS011;39539;52.202;9.876;2024-03-02T09:34:12;14.45;;;13.35;;
19675;SDS011;39539;52.202;9.876;2024-03-02T09:36:39;14.82;;;13.45;;
19675;SDS011;39539;52.202;9.876;2024-03-02T09:39:04;14.50;;;13.25;;
19675;SDS011;39539;52.202;9.876;2024-03-02T09:41:29;13.68;;;12.20;;
19675;SDS011;39539;52.202;9.876;2024-03-02T09:43:59;13.68;;;12.57;;
19675;SDS011;39539;52.202;9.876;2024-03-02T09:46:25;14.05;;;12.85;;
19675;SDS011;39539;52.202;9.876;2024-03-02T09:48:50;12.82;;;11.70;;
19675;SDS011;39539;52.202;9.876;2024-03-02T09:51:16;13.43;;;12.30;;
19675;SDS011;39539;52.202;9.876;2024-03-02T09:53:45;12.90;;;11.88;;
19675;SDS011;39539;52.202;9.876;2024-03-02T09:56:12;12.73;;;11.73;;
19675;SDS011;39539;52.202;9.876;2024-03-02T09:58:38;12.90;;;11.85;;
19675;SDS011;39539;52.202;9.876;2024-03-02T10:01:05;12.95;;;11.85;;
19675;SDS011;39539;52.202;9.876;2024-03-02T10:03:31;12.50;;;11.38;;
19675;SDS011;39539;52.202;9.876;2024-03-02T10:08:43;12.05;;;11.07;;
19675;SDS011;39539;52.202;9.876;2024-03-02T10:11:09;12.25;;;11.15;;
19675;SDS011;39539;52.202;9.876;2024-03-02T10:13:34;11.90;;;10.90;;
19675;SDS011;39539;52.202;9.876;2024-03-02T10:15:59;12.48;;;11.35;;
19675;SDS011;39539;52.202;9.876;2024-03-02T10:18:37;12.68;;;11.68;;
19675;SDS011;39539;52.202;9.876;2024-03-02T10:21:14;12.05;;;11.15;;
19675;SDS011;39539;52.202;9.876;2024-03-02T10:24:05;11.77;;;10.80;;
19675;SDS011;39539;52.202;9.876;2024-03-02T10:26:32;11.32;;;10.43;;
19675;SDS011;39539;52.202;9.876;2024-03-02T10:28:58;11.70;;;10.70;;
19675;SDS011;39539;52.202;9.876;2024-03-02T10:31:24;11.63;;;10.63;;
19675;SDS011;39539;52.202;9.876;2024-03-02T10:34:05;11.07;;;10.25;;
19675;SDS011;39539;52.202;9.876;2024-03-02T10:36:35;13.23;;;12.18;;
19675;SDS011;39539;52.202;9.876;2024-03-02T10:39:03;11.93;;;11.02;;
19675;SDS011;39539;52.202;9.876;2024-03-02T10:41:34;11.55;;;10.75;;
19675;SDS011;39539;52.202;9.876;2024-03-02T10:44:19;12.02;;;10.60;;
19675;SDS011;39539;52.202;9.876;2024-03-02T10:46:46;10.65;;;9.85;;
19675;SDS011;39539;52.202;9.876;2024-03-02T10:49:14;9.57;;;8.77;;
19675;SDS011;39539;52.202;9.876;2024-03-02T10:51:39;11.43;;;10.43;;
19675;SDS011;39539;52.202;9.876;2024-03-02T10:54:05;11.18;;;10.15;;
19675;SDS011;39539;52.202;9.876;2024-03-02T10:56:31;10.38;;;9.48;;
19675;SDS011;39539;52.202;9.876;2024-03-02T10:59:22;9.60;;;8.80;;
19675;SDS011;39539;52.202;9.876;2024-03-02T11:02:01;9.80;;;9.00;;
19675;SDS011;39539;52.202;9.876;2024-03-02T11:04:28;9.63;;;8.93;;
19675;SDS011;39539;52.202;9.876;2024-03-02T11:07:05;10.50;;;9.60;;
19675;SDS011;39539;52.202;9.876;2024-03-02T11:09:54;9.52;;;8.73;;
19675;SDS011;39539;52.202;9.876;2024-03-02T11:12:31;9.65;;;8.80;;
19675;SDS011;39539;52.202;9.876;2024-03-02T11:15:10;10.07;;;9.35;;
19675;SDS011;39539;52.202;9.876;2024-03-02T11:17:39;10.07;;;9.27;;
19675;SDS011;39539;52.202;9.876;2024-03-02T11:20:07;11.10;;;10.10;;
19675;SDS011;39539;52.202;9.876;2024-03-02T11:22:35;9.93;;;9.13;;
19675;SDS011;39539;52.202;9.876;2024-03-02T11:25:01;9.32;;;8.55;;
19675;SDS011;39539;52.202;9.876;2024-03-02T11:30:56;9.48;;;8.60;;
19675;SDS011;39539;52.202;9.876;2024-03-02T11:32:59;9.80;;;9.05;;
19675;SDS011;39539;52.202;9.876;2024-03-02T11:35:37;8.05;;;7.35;;
19675;SDS011;39539;52.202;9.876;2024-03-02T11:38:07;8.50;;;7.28;;
19675;SDS011;39539;52.202;9.876;2024-03-02T11:40:35;8.23;;;7.53;;
19675;SDS011;39539;52.202;9.876;2024-03-02T11:43:00;8.25;;;7.65;;
19675;SDS011;39539;52.202;9.876;2024-03-02T11:45:26;7.70;;;7.00;;
19675;SDS011;39539;52.202;9.876;2024-03-02T11:47:56;8.00;;;7.32;;
19675;SDS011;39539;52.202;9.876;2024-03-02T11:50:36;7.80;;;7.10;;
19675;SDS011;39539;52.202;9.876;2024-03-02T11:53:11;7.93;;;7.30;;
19675;SDS011;39539;52.202;9.876;2024-03-02T11:55:38;7.53;;;6.93;;
19675;SDS011;39539;52.202;9.876;2024-03-02T11:58:04;6.90;;;6.30;;
19675;SDS011;39539;52.202;9.876;2024-03-02T12:00:30;7.38;;;6.78;;
19675;SDS011;39539;52.202;9.876;2024-03-02T12:03:06;7.22;;;6.55;;
19675;SDS011;39539;52.202;9.876;2024-03-02T12:05:33;7.40;;;6.80;;
19675;SDS011;39539;52.202;9.876;2024-03-02T12:07:59;7.78;;;7.07;;
19675;SDS011;39539;52.202;9.876;2024-03-02T12:10:26;7.53;;;6.93;;
19675;SDS011;39539;52.202;9.876;2024-03-02T12:12:57;8.52;;;7.82;;
19675;SDS011;39539;52.202;9.876;2024-03-02T12:15:28;7.47;;;6.97;;
19675;SDS011;39539;52.202;9.876;2024-03-02T12:17:59;8.70;;;8.00;;
19675;SDS011;39539;52.202;9.876;2024-03-02T12:20:26;9.57;;;8.02;;
19675;SDS011;39539;52.202;9.876;2024-03-02T12:22:57;7.40;;;6.88;;
19675;SDS011;39539;52.202;9.876;2024-03-02T12:25:25;7.50;;;6.90;;
19675;SDS011;39539;52.202;9.876;2024-03-02T12:27:55;7.55;;;6.95;;
19675;SDS011;39539;52.202;9.876;2024-03-02T12:30:23;8.00;;;7.40;;
19675;SDS011;39539;52.202;9.876;2024-03-02T12:32:49;7.57;;;6.97;;
19675;SDS011;39539;52.202;9.876;2024-03-02T12:35:15;7.30;;;6.80;;
19675;SDS011;39539;52.202;9.876;2024-03-02T12:37:48;7.63;;;7.03;;
19675;SDS011;39539;52.202;9.876;2024-03-02T12:40:20;7.97;;;7.28;;
19675;SDS011;39539;52.202;9.876;2024-03-02T12:42:48;7.43;;;6.82;;
19675;SDS011;39539;52.202;9.876;2024-03-02T12:45:15;7.18;;;6.57;;
19675;SDS011;39539;52.202;9.876;2024-03-02T12:47:42;7.10;;;6.45;;
19675;SDS011;39539;52.202;9.876;2024-03-02T12:50:10;7.22;;;6.68;;
19675;SDS011;39539;52.202;9.876;2024-03-02T12:52:37;7.07;;;6.47;;
19675;SDS011;39539;52.202;9.876;2024-03-02T12:55:05;9.73;;;7.50;;
19675;SDS011;39539;52.202;9.876;2024-03-02T12:57:32;7.32;;;6.63;;
19675;SDS011;39539;52.202;9.876;2024-03-02T12:59:58;7.45;;;6.75;;
19675;SDS011;39539;52.202;9.876;2024-03-02T13:02:28;5.80;;;5.30;;
19675;SDS011;39539;52.202;9.876;2024-03-02T13:04:54;5.90;;;5.40;;
19675;SDS011;39539;52.202;9.876;2024-03-02T13:07:20;5.70;;;5.30;;
19675;SDS011;39539;52.202;9.876;2024-03-02T13:09:47;5.75;;;5.10;;
19675;SDS011;39539;52.202;9.876;2024-03-02T13:12:15;4.50;;;4.20;;
19675;SDS011;39539;52.202;9.876;2024-03-02T13:14:42;4.97;;;4.57;;
19675;SDS011;39539;52.202;9.876;2024-03-02T13:17:09;6.10;;;5.70;;
19675;SDS011;39539;52.202;9.876;2024-03-02T13:19:34;6.30;;;5.70;;
19675;SDS011;39539;52.202;9.876;2024-03-02T13:22:00;5.47;;;5.07;;
19675;SDS011;39539;52.202;9.876;2024-03-02T13:24:28;6.13;;;5.63;;
19675;SDS011;39539;52.202;9.876;2024-03-02T13:26:54;5.30;;;4.80;;
19675;SDS011;39539;52.202;9.876;2024-03-02T13:29:22;5.60;;;5.10;;
19675;SDS011;39539;52.202;9.876;2024-03-02T13:31:47;5.57;;;5.07;;
19675;SDS011;39539;52.202;9.876;2024-03-02T13:34:14;6.07;;;5.57;;
19675;SDS011;39539;52.202;9.876;2024-03-02T13:36:40;5.90;;;5.40;;
19675;SDS011;39539;52.202;9.876;2024-03-02T13:39:05;4.40;;;4.00;;
19675;SDS011;39539;52.202;9.876;2024-03-02T13:41:35;4.93;;;4.53;;
19675;SDS011;39539;52.202;9.876;2024-03-02T13:44:04;5.10;;;4.70;;
19675;SDS011;39539;52.202;9.876;2024-03-02T13:46:33;5.18;;;4.60;;
19675;SDS011;39539;52.202;9.876;2024-03-02T13:48:58;4.97;;;4.57;;
19675;SDS011;39539;52.202;9.876;2024-03-02T13:51:24;5.55;;;5.15;;
19675;SDS011;39539;52.202;9.876;2024-03-02T13:53:50;5.13;;;4.72;;
19675;SDS011;39539;52.202;9.876;2024-03-02T13:56:15;4.90;;;4.50;;
19675;SDS011;39539;52.202;9.876;2024-03-02T13:58:44;5.03;;;4.60;;
19675;SDS011;39539;52.202;9.876;2024-03-02T14:01:11;4.80;;;4.40;;
19675;SDS011;39539;52.202;9.876;2024-03-02T14:03:38;4.55;;;4.15;;
19675;SDS011;39539;52.202;9.876;2024-03-02T14:11:38;5.45;;;4.90;;
19675;SDS011;39539;52.202;9.876;2024-03-02T14:22:20;4.80;;;4.50;;
19675;SDS011;39539;52.202;9.876;2024-03-02T14:24:45;5.55;;;5.07;;
19675;SDS011;39539;52.202;9.876;2024-03-02T14:27:12;5.25;;;4.75;;
19675;SDS011;39539;52.202;9.876;2024-03-02T14:29:40;5.47;;;4.97;;
19675;SDS011;39539;52.202;9.876;2024-03-02T14:32:07;5.03;;;4.63;;
19675;SDS011;39539;52.202;9.876;2024-03-02T14:37:57;4.20;;;3.90;;
19675;SDS011;39539;52.202;9.876;2024-03-02T14:40:23;4.28;;;3.97;;
19675;SDS011;39539;52.202;9.876;2024-03-02T14:43:01;4.95;;;4.57;;
19675;SDS011;39539;52.202;9.876;2024-03-02T14:48:26;4.85;;;4.45;;
19675;SDS011;39539;52.202;9.876;2024-03-02T14:50:51;4.75;;;4.35;;
19675;SDS011;39539;52.202;9.876;2024-03-02T14:53:20;5.60;;;5.10;;
19675;SDS011;39539;52.202;9.876;2024-03-02T14:55:48;5.68;;;5.28;;
19675;SDS011;39539;52.202;9.876;2024-03-02T14:58:16;6.07;;;5.60;;
19675;SDS011;39539;52.202;9.876;2024-03-02T15:00:57;6.13;;;5.63;;
19675;SDS011;39539;52.202;9.876;2024-03-02T15:03:24;5.60;;;5.10;;
19675;SDS011;39539;52.202;9.876;2024-03-02T15:05:54;6.15;;;5.65;;